sensor_id;sensor_type;location;lat;lon;timestamp;P1;durP1;ratioP1;P2;durP2;ratioP2
40284;SDS011;25997;50.214;19.354;2022-07-09T00:00:38;8.38;;;3.50;;
40284;SDS011;25997;50.214;19.354;2022-07-09T00:03:42;9.38;;;3.30;;
40284;SDS011;25997;50.214;19.354;2022-07-09T00:06:44;8.57;;;2.72;;
40284;SDS011;25997;50.214;19.354;2022-07-09T00:09:47;7.65;;;3.28;;
40284;SDS011;25997;50.214;19.354;2022-07-09T00:12:49;13.15;;;3.47;;
40284;SDS011;25997;50.214;19.354;2022-07-09T00:15:51;6.78;;;2.90;;
40284;SDS011;25997;50.214;19.354;2022-07-09T00:18:55;7.13;;;3.03;;
40284;SDS011;25997;50.214;19.354;2022-07-09T00:21:58;6.25;;;3.13;;
40284;SDS011;25997;50.214;19.354;2022-07-09T00:25:00;6.15;;;2.90;;
40284;SDS011;25997;50.214;19.354;2022-07-09T00:28:04;6.65;;;2.85;;
40284;SDS011;25997;50.214;19.354;2022-07-09T00:31:06;8.82;;;3.35;;
40284;SDS011;25997;50.214;19.354;2022-07-09T00:34:10;9.25;;;3.08;;
40284;SDS011;25997;50.214;19.354;2022-07-09T00:37:12;5.95;;;2.97;;
40284;SDS011;25997;50.214;19.354;2022-07-09T00:40:15;9.18;;;3.30;;
40284;SDS011;25997;50.214;19.354;2022-07-09T00:43:17;6.38;;;2.58;;
40284;SDS011;25997;50.214;19.354;2022-07-09T00:46:21;7.30;;;2.97;;
40284;SDS011;25997;50.214;19.354;2022-07-09T00:49:25;6.10;;;3.13;;
40284;SDS011;25997;50.214;19.354;2022-07-09T00:52:30;10.05;;;4.60;;
40284;SDS011;25997;50.214;19.354;2022-07-09T00:55:34;8.02;;;3.60;;
40284;SDS011;25997;50.214;19.354;2022-07-09T00:58:37;9.68;;;4.07;;
40284;SDS011;25997;50.214;19.354;2022-07-09T01:01:40;7.40;;;3.95;;
40284;SDS011;25997;50.214;19.354;2022-07-09T01:04:44;7.35;;;3.67;;
40284;SDS011;25997;50.214;19.354;2022-07-09T01:07:47;9.23;;;3.47;;
40284;SDS011;25997;50.214;19.354;2022-07-09T01:10:50;9.80;;;3.80;;
40284;SDS011;25997;50.214;19.354;2022-07-09T01:13:53;7.97;;;3.42;;
40284;SDS011;25997;50.214;19.354;2022-07-09T01:16:56;7.30;;;3.25;;
40284;SDS011;25997;50.214;19.354;2022-07-09T01:20:02;6.20;;;3.22;;
40284;SDS011;25997;50.214;19.354;2022-07-09T01:23:07;6.95;;;3.42;;
40284;SDS011;25997;50.214;19.354;2022-07-09T01:26:09;5.65;;;3.20;;
40284;SDS011;25997;50.214;19.354;2022-07-09T01:29:12;7.93;;;3.33;;
40284;SDS011;25997;50.214;19.354;2022-07-09T01:32:14;6.93;;;3.60;;
40284;SDS011;25997;50.214;19.354;2022-07-09T01:35:17;9.00;;;3.60;;
40284;SDS011;25997;50.214;19.354;2022-07-09T01:38:21;8.02;;;3.50;;
40284;SDS011;25997;50.214;19.354;2022-07-09T01:41:23;6.95;;;3.83;;
40284;SDS011;25997;50.214;19.354;2022-07-09T01:44:25;7.68;;;4.07;;
40284;SDS011;25997;50.214;19.354;2022-07-09T01:47:28;8.15;;;3.63;;
40284;SDS011;25997;50.214;19.354;2022-07-09T01:50:30;6.20;;;3.78;;
40284;SDS011;25997;50.214;19.354;2022-07-09T01:53:34;5.47;;;3.78;;
40284;SDS011;25997;50.214;19.354;2022-07-09T01:56:36;6.93;;;3.22;;
40284;SDS011;25997;50.214;19.354;2022-07-09T01:59:39;7.65;;;3.88;;
40284;SDS011;25997;50.214;19.354;2022-07-09T02:02:41;7.05;;;3.17;;
40284;SDS011;25997;50.214;19.354;2022-07-09T02:05:44;8.13;;;3.72;;
40284;SDS011;25997;50.214;19.354;2022-07-09T02:08:47;9.13;;;3.15;;
40284;SDS011;25997;50.214;19.354;2022-07-09T02:11:50;10.95;;;4.07;;
40284;SDS011;25997;50.214;19.354;2022-07-09T02:14:52;9.30;;;4.18;;
40284;SDS011;25997;50.214;19.354;2022-07-09T02:17:55;8.02;;;4.30;;
40284;SDS011;25997;50.214;19.354;2022-07-09T02:20:57;10.98;;;4.47;;
40284;SDS011;25997;50.214;19.354;2022-07-09T02:24:01;7.15;;;3.35;;
40284;SDS011;25997;50.214;19.354;2022-07-09T02:27:04;7.53;;;3.67;;
40284;SDS011;25997;50.214;19.354;2022-07-09T02:30:07;7.32;;;3.95;;
40284;SDS011;25997;50.214;19.354;2022-07-09T02:33:10;8.25;;;3.40;;
40284;SDS011;25997;50.214;19.354;2022-07-09T02:36:13;11.07;;;2.85;;
40284;SDS011;25997;50.214;19.354;2022-07-09T02:39:17;6.25;;;3.47;;
40284;SDS011;25997;50.214;19.354;2022-07-09T02:42:19;8.82;;;3.10;;
40284;SDS011;25997;50.214;19.354;2022-07-09T02:45:22;7.63;;;3.45;;
40284;SDS011;25997;50.214;19.354;2022-07-09T02:48:24;5.93;;;2.90;;
40284;SDS011;25997;50.214;19.354;2022-07-09T02:51:27;8.18;;;2.75;;
40284;SDS011;25997;50.214;19.354;2022-07-09T02:54:31;8.63;;;3.33;;
40284;SDS011;25997;50.214;19.354;2022-07-09T02:57:34;9.45;;;2.97;;
40284;SDS011;25997;50.214;19.354;2022-07-09T03:00:36;5.78;;;2.58;;
40284;SDS011;25997;50.214;19.354;2022-07-09T03:03:40;9.15;;;3.40;;
40284;SDS011;25997;50.214;19.354;2022-07-09T03:06:42;8.13;;;3.35;;
40284;SDS011;25997;50.214;19.354;2022-07-09T03:09:46;6.68;;;3.10;;
40284;SDS011;25997;50.214;19.354;2022-07-09T03:12:49;10.80;;;3.47;;
40284;SDS011;25997;50.214;19.354;2022-07-09T03:15:51;5.95;;;3.22;;
40284;SDS011;25997;50.214;19.354;2022-07-09T03:18:54;6.90;;;3.15;;
40284;SDS011;25997;50.214;19.354;2022-07-09T03:21:56;6.85;;;2.92;;
40284;SDS011;25997;50.214;19.354;2022-07-09T03:25:00;7.85;;;3.47;;
40284;SDS011;25997;50.214;19.354;2022-07-09T03:28:03;13.48;;;3.92;;
40284;SDS011;25997;50.214;19.354;2022-07-09T03:31:05;7.75;;;4.18;;
40284;SDS011;25997;50.214;19.354;2022-07-09T03:34:08;7.68;;;3.70;;
40284;SDS011;25997;50.214;19.354;2022-07-09T03:37:10;8.63;;;3.33;;
40284;SDS011;25997;50.214;19.354;2022-07-09T03:40:15;7.47;;;3.28;;
40284;SDS011;25997;50.214;19.354;2022-07-09T03:43:17;7.22;;;3.25;;
40284;SDS011;25997;50.214;19.354;2022-07-09T03:46:20;13.32;;;4.80;;
40284;SDS011;25997;50.214;19.354;2022-07-09T03:49:24;8.00;;;2.80;;
40284;SDS011;25997;50.214;19.354;2022-07-09T03:52:26;7.25;;;2.75;;
40284;SDS011;25997;50.214;19.354;2022-07-09T03:55:30;9.73;;;5.35;;
40284;SDS011;25997;50.214;19.354;2022-07-09T03:58:32;9.60;;;3.55;;
40284;SDS011;25997;50.214;19.354;2022-07-09T04:01:36;8.30;;;3.03;;
40284;SDS011;25997;50.214;19.354;2022-07-09T04:04:39;6.50;;;3.08;;
40284;SDS011;25997;50.214;19.354;2022-07-09T04:07:43;5.70;;;2.70;;
40284;SDS011;25997;50.214;19.354;2022-07-09T04:10:47;9.82;;;3.42;;
40284;SDS011;25997;50.214;19.354;2022-07-09T04:13:49;7.50;;;2.75;;
40284;SDS011;25997;50.214;19.354;2022-07-09T04:16:52;4.88;;;2.50;;
40284;SDS011;25997;50.214;19.354;2022-07-09T04:19:54;6.00;;;2.92;;
40284;SDS011;25997;50.214;19.354;2022-07-09T04:22:57;4.20;;;2.63;;
40284;SDS011;25997;50.214;19.354;2022-07-09T04:26:00;6.18;;;2.65;;
40284;SDS011;25997;50.214;19.354;2022-07-09T04:29:03;7.70;;;2.80;;
40284;SDS011;25997;50.214;19.354;2022-07-09T04:32:06;7.50;;;3.22;;
40284;SDS011;25997;50.214;19.354;2022-07-09T04:35:09;7.63;;;2.90;;
40284;SDS011;25997;50.214;19.354;2022-07-09T04:38:11;5.72;;;2.83;;
40284;SDS011;25997;50.214;19.354;2022-07-09T04:41:16;6.97;;;2.95;;
40284;SDS011;25997;50.214;19.354;2022-07-09T04:44:18;5.07;;;2.83;;
40284;SDS011;25997;50.214;19.354;2022-07-09T04:47:20;6.13;;;2.58;;
40284;SDS011;25997;50.214;19.354;2022-07-09T04:50:23;6.28;;;3.10;;
40284;SDS011;25997;50.214;19.354;2022-07-09T04:53:26;6.00;;;2.75;;
40284;SDS011;25997;50.214;19.354;2022-07-09T04:56:29;7.13;;;2.65;;
40284;SDS011;25997;50.214;19.354;2022-07-09T04:59:32;6.85;;;2.80;;
40284;SDS011;25997;50.214;19.354;2022-07-09T05:02:34;6.25;;;3.00;;
40284;SDS011;25997;50.214;19.354;2022-07-09T05:05:37;5.80;;;3.03;;
40284;SDS011;25997;50.214;19.354;2022-07-09T05:08:39;7.88;;;3.42;;
40284;SDS011;25997;50.214;19.354;2022-07-09T05:11:43;8.52;;;4.50;;
40284;SDS011;25997;50.214;19.354;2022-07-09T05:14:45;8.23;;;3.45;;
40284;SDS011;25997;50.214;19.354;2022-07-09T05:17:48;7.15;;;3.00;;
40284;SDS011;25997;50.214;19.354;2022-07-09T05:20:51;8.73;;;3.17;;
40284;SDS011;25997;50.214;19.354;2022-07-09T05:23:53;6.32;;;3.83;;
40284;SDS011;25997;50.214;19.354;2022-07-09T05:26:57;7.43;;;4.95;;
40284;SDS011;25997;50.214;19.354;2022-07-09T05:29:59;7.15;;;4.80;;
40284;SDS011;25997;50.214;19.354;2022-07-09T05:33:02;10.88;;;4.70;;
40284;SDS011;25997;50.214;19.354;2022-07-09T05:36:04;6.85;;;3.67;;
40284;SDS011;25997;50.214;19.354;2022-07-09T05:39:07;7.65;;;3.25;;
40284;SDS011;25997;50.214;19.354;2022-07-09T05:42:11;6.85;;;3.35;;
40284;SDS011;25997;50.214;19.354;2022-07-09T05:45:13;10.20;;;3.42;;
40284;SDS011;25997;50.214;19.354;2022-07-09T05:48:16;8.05;;;3.63;;
40284;SDS011;25997;50.214;19.354;2022-07-09T05:51:18;9.25;;;4.20;;
40284;SDS011;25997;50.214;19.354;2022-07-09T05:54:21;12.60;;;5.88;;
40284;SDS011;25997;50.214;19.354;2022-07-09T05:57:25;10.32;;;4.72;;
40284;SDS011;25997;50.214;19.354;2022-07-09T06:00:27;7.70;;;3.75;;
40284;SDS011;25997;50.214;19.354;2022-07-09T06:03:29;7.75;;;4.35;;
40284;SDS011;25997;50.214;19.354;2022-07-09T06:06:32;12.90;;;4.90;;
40284;SDS011;25997;50.214;19.354;2022-07-09T06:09:35;6.32;;;3.90;;
40284;SDS011;25997;50.214;19.354;2022-07-09T06:12:39;7.25;;;4.20;;
40284;SDS011;25997;50.214;19.354;2022-07-09T06:15:42;8.73;;;5.30;;
40284;SDS011;25997;50.214;19.354;2022-07-09T06:18:45;6.95;;;3.90;;
40284;SDS011;25997;50.214;19.354;2022-07-09T06:21:47;7.05;;;4.47;;
40284;SDS011;25997;50.214;19.354;2022-07-09T06:24:50;9.48;;;6.28;;
40284;SDS011;25997;50.214;19.354;2022-07-09T06:27:54;8.95;;;3.70;;
40284;SDS011;25997;50.214;19.354;2022-07-09T06:30:56;8.40;;;3.92;;
40284;SDS011;25997;50.214;19.354;2022-07-09T06:33:59;11.70;;;8.15;;
40284;SDS011;25997;50.214;19.354;2022-07-09T06:37:01;8.95;;;4.03;;
40284;SDS011;25997;50.214;19.354;2022-07-09T06:40:04;11.57;;;6.20;;
40284;SDS011;25997;50.214;19.354;2022-07-09T06:43:09;7.72;;;4.30;;
40284;SDS011;25997;50.214;19.354;2022-07-09T06:46:19;10.23;;;3.55;;
40284;SDS011;25997;50.214;19.354;2022-07-09T06:49:21;8.68;;;3.95;;
40284;SDS011;25997;50.214;19.354;2022-07-09T06:52:24;5.72;;;3.45;;
40284;SDS011;25997;50.214;19.354;2022-07-09T06:55:26;7.68;;;3.42;;
40284;SDS011;25997;50.214;19.354;2022-07-09T06:58:30;6.18;;;3.22;;
40284;SDS011;25997;50.214;19.354;2022-07-09T07:01:33;6.90;;;2.95;;
40284;SDS011;25997;50.214;19.354;2022-07-09T07:04:35;7.95;;;3.00;;
40284;SDS011;25997;50.214;19.354;2022-07-09T07:07:38;6.43;;;2.90;;
40284;SDS011;25997;50.214;19.354;2022-07-09T07:10:40;6.35;;;3.83;;
40284;SDS011;25997;50.214;19.354;2022-07-09T07:13:44;5.78;;;2.70;;
40284;SDS011;25997;50.214;19.354;2022-07-09T07:16:46;5.90;;;2.60;;
40284;SDS011;25997;50.214;19.354;2022-07-09T07:19:49;5.72;;;3.58;;
40284;SDS011;25997;50.214;19.354;2022-07-09T07:22:51;8.15;;;3.92;;
40284;SDS011;25997;50.214;19.354;2022-07-09T07:25:54;5.18;;;2.58;;
40284;SDS011;25997;50.214;19.354;2022-07-09T07:28:58;5.72;;;2.70;;
40284;SDS011;25997;50.214;19.354;2022-07-09T07:32:00;5.50;;;2.63;;
40284;SDS011;25997;50.214;19.354;2022-07-09T07:35:03;8.25;;;2.83;;
40284;SDS011;25997;50.214;19.354;2022-07-09T07:38:06;4.68;;;2.55;;
40284;SDS011;25997;50.214;19.354;2022-07-09T07:41:08;6.15;;;3.33;;
40284;SDS011;25997;50.214;19.354;2022-07-09T07:44:12;5.70;;;2.38;;
40284;SDS011;25997;50.214;19.354;2022-07-09T07:47:14;4.18;;;2.88;;
40284;SDS011;25997;50.214;19.354;2022-07-09T07:50:17;4.55;;;2.72;;
40284;SDS011;25997;50.214;19.354;2022-07-09T07:53:19;6.40;;;2.67;;
40284;SDS011;25997;50.214;19.354;2022-07-09T07:56:22;6.65;;;2.33;;
40284;SDS011;25997;50.214;19.354;2022-07-09T07:59:26;4.30;;;2.45;;
40284;SDS011;25997;50.214;19.354;2022-07-09T08:02:28;4.78;;;1.95;;
40284;SDS011;25997;50.214;19.354;2022-07-09T08:05:31;5.25;;;2.22;;
40284;SDS011;25997;50.214;19.354;2022-07-09T08:08:33;5.18;;;2.30;;
40284;SDS011;25997;50.214;19.354;2022-07-09T08:11:36;5.82;;;2.15;;
40284;SDS011;25997;50.214;19.354;2022-07-09T08:14:39;4.40;;;2.15;;
40284;SDS011;25997;50.214;19.354;2022-07-09T08:17:42;8.77;;;2.30;;
40284;SDS011;25997;50.214;19.354;2022-07-09T08:20:44;4.40;;;2.47;;
40284;SDS011;25997;50.214;19.354;2022-07-09T08:23:48;6.10;;;3.45;;
40284;SDS011;25997;50.214;19.354;2022-07-09T08:26:54;5.18;;;2.67;;
40284;SDS011;25997;50.214;19.354;2022-07-09T08:29:58;5.55;;;2.42;;
40284;SDS011;25997;50.214;19.354;2022-07-09T08:33:01;7.57;;;2.50;;
40284;SDS011;25997;50.214;19.354;2022-07-09T08:36:03;3.45;;;2.30;;
40284;SDS011;25997;50.214;19.354;2022-07-09T08:39:06;7.30;;;2.88;;
40284;SDS011;25997;50.214;19.354;2022-07-09T08:42:09;3.85;;;2.10;;
40284;SDS011;25997;50.214;19.354;2022-07-09T08:45:13;5.85;;;2.05;;
40284;SDS011;25997;50.214;19.354;2022-07-09T08:48:18;4.07;;;1.73;;
40284;SDS011;25997;50.214;19.354;2022-07-09T08:51:21;6.60;;;2.40;;
40284;SDS011;25997;50.214;19.354;2022-07-09T08:54:25;4.20;;;2.10;;
40284;SDS011;25997;50.214;19.354;2022-07-09T08:57:27;3.33;;;1.92;;
40284;SDS011;25997;50.214;19.354;2022-07-09T09:00:32;5.10;;;2.05;;
40284;SDS011;25997;50.214;19.354;2022-07-09T09:03:35;4.95;;;2.40;;
40284;SDS011;25997;50.214;19.354;2022-07-09T09:06:37;3.75;;;1.80;;
40284;SDS011;25997;50.214;19.354;2022-07-09T09:09:41;4.65;;;1.88;;
40284;SDS011;25997;50.214;19.354;2022-07-09T09:12:44;3.33;;;2.08;;
40284;SDS011;25997;50.214;19.354;2022-07-09T09:15:48;5.57;;;2.13;;
40284;SDS011;25997;50.214;19.354;2022-07-09T09:18:51;4.30;;;2.00;;
40284;SDS011;25997;50.214;19.354;2022-07-09T09:21:54;4.47;;;2.15;;
40284;SDS011;25997;50.214;19.354;2022-07-09T09:24:57;5.40;;;2.88;;
40284;SDS011;25997;50.214;19.354;2022-07-09T09:28:00;4.22;;;2.45;;
40284;SDS011;25997;50.214;19.354;2022-07-09T09:31:17;4.38;;;1.95;;
40284;SDS011;25997;50.214;19.354;2022-07-09T09:34:20;3.05;;;2.20;;
40284;SDS011;25997;50.214;19.354;2022-07-09T09:37:24;5.22;;;2.30;;
40284;SDS011;25997;50.214;19.354;2022-07-09T09:40:28;5.97;;;2.28;;
40284;SDS011;25997;50.214;19.354;2022-07-09T09:43:30;4.60;;;2.33;;
40284;SDS011;25997;50.214;19.354;2022-07-09T09:46:36;4.57;;;2.50;;
40284;SDS011;25997;50.214;19.354;2022-07-09T09:49:39;5.65;;;2.88;;
40284;SDS011;25997;50.214;19.354;2022-07-09T09:52:45;3.67;;;2.72;;
40284;SDS011;25997;50.214;19.354;2022-07-09T09:55:48;6.43;;;2.88;;
40284;SDS011;25997;50.214;19.354;2022-07-09T09:58:52;6.38;;;3.50;;
40284;SDS011;25997;50.214;19.354;2022-07-09T10:01:57;4.85;;;2.47;;
40284;SDS011;25997;50.214;19.354;2022-07-09T10:04:59;5.25;;;3.10;;
40284;SDS011;25997;50.214;19.354;2022-07-09T10:08:02;4.35;;;2.70;;
40284;SDS011;25997;50.214;19.354;2022-07-09T10:11:05;4.55;;;2.45;;
40284;SDS011;25997;50.214;19.354;2022-07-09T10:14:07;5.78;;;3.15;;
40284;SDS011;25997;50.214;19.354;2022-07-09T10:17:17;4.53;;;2.43;;
40284;SDS011;25997;50.214;19.354;2022-07-09T10:20:29;7.68;;;2.17;;
40284;SDS011;25997;50.214;19.354;2022-07-09T10:23:34;6.18;;;2.40;;
40284;SDS011;25997;50.214;19.354;2022-07-09T10:26:44;5.97;;;2.50;;
40284;SDS011;25997;50.214;19.354;2022-07-09T10:29:52;4.65;;;1.98;;
40284;SDS011;25997;50.214;19.354;2022-07-09T10:33:04;4.40;;;3.03;;
40284;SDS011;25997;50.214;19.354;2022-07-09T10:36:12;5.95;;;2.10;;
40284;SDS011;25997;50.214;19.354;2022-07-09T10:39:16;6.15;;;3.20;;
40284;SDS011;25997;50.214;19.354;2022-07-09T10:42:19;5.57;;;2.90;;
40284;SDS011;25997;50.214;19.354;2022-07-09T10:45:24;5.68;;;2.58;;
40284;SDS011;25997;50.214;19.354;2022-07-09T10:48:33;5.20;;;2.50;;
40284;SDS011;25997;50.214;19.354;2022-07-09T10:51:37;5.93;;;2.70;;
40284;SDS011;25997;50.214;19.354;2022-07-09T10:54:45;6.75;;;2.70;;
40284;SDS011;25997;50.214;19.354;2022-07-09T10:57:48;10.13;;;2.30;;
40284;SDS011;25997;50.214;19.354;2022-07-09T11:00:54;4.28;;;2.50;;
40284;SDS011;25997;50.214;19.354;2022-07-09T11:03:59;4.95;;;2.53;;
40284;SDS011;25997;50.214;19.354;2022-07-09T11:07:01;3.92;;;2.38;;
40284;SDS011;25997;50.214;19.354;2022-07-09T11:10:04;4.72;;;2.50;;
40284;SDS011;25997;50.214;19.354;2022-07-09T11:13:07;4.60;;;2.30;;
40284;SDS011;25997;50.214;19.354;2022-07-09T11:16:10;5.03;;;2.33;;
40284;SDS011;25997;50.214;19.354;2022-07-09T11:19:14;4.15;;;2.47;;
40284;SDS011;25997;50.214;19.354;2022-07-09T11:22:17;8.10;;;5.65;;
40284;SDS011;25997;50.214;19.354;2022-07-09T11:25:20;4.20;;;2.35;;
40284;SDS011;25997;50.214;19.354;2022-07-09T11:28:23;7.97;;;3.03;;
40284;SDS011;25997;50.214;19.354;2022-07-09T11:31:27;7.28;;;2.20;;
40284;SDS011;25997;50.214;19.354;2022-07-09T11:34:31;3.90;;;2.15;;
40284;SDS011;25997;50.214;19.354;2022-07-09T11:37:34;5.05;;;2.53;;
40284;SDS011;25997;50.214;19.354;2022-07-09T11:40:36;3.25;;;1.90;;
40284;SDS011;25997;50.214;19.354;2022-07-09T11:43:39;4.95;;;2.58;;
40284;SDS011;25997;50.214;19.354;2022-07-09T11:50:08;2.85;;;2.08;;
40284;SDS011;25997;50.214;19.354;2022-07-09T11:53:18;4.30;;;2.15;;
40284;SDS011;25997;50.214;19.354;2022-07-09T11:56:21;3.05;;;1.83;;
40284;SDS011;25997;50.214;19.354;2022-07-09T11:59:27;3.28;;;2.10;;
40284;SDS011;25997;50.214;19.354;2022-07-09T12:02:34;4.75;;;1.75;;
40284;SDS011;25997;50.214;19.354;2022-07-09T12:05:38;2.10;;;1.50;;
40284;SDS011;25997;50.214;19.354;2022-07-09T12:08:41;3.17;;;1.58;;
40284;SDS011;25997;50.214;19.354;2022-07-09T12:11:44;8.18;;;2.33;;
40284;SDS011;25997;50.214;19.354;2022-07-09T12:14:46;4.65;;;1.88;;
40284;SDS011;25997;50.214;19.354;2022-07-09T12:17:52;3.75;;;1.80;;
40284;SDS011;25997;50.214;19.354;2022-07-09T12:20:57;3.83;;;1.70;;
40284;SDS011;25997;50.214;19.354;2022-07-09T12:23:59;3.95;;;1.70;;
40284;SDS011;25997;50.214;19.354;2022-07-09T12:27:02;3.30;;;1.75;;
40284;SDS011;25997;50.214;19.354;2022-07-09T12:30:05;3.65;;;2.03;;
40284;SDS011;25997;50.214;19.354;2022-07-09T12:33:08;4.07;;;2.20;;
40284;SDS011;25997;50.214;19.354;2022-07-09T12:36:12;2.53;;;1.88;;
40284;SDS011;25997;50.214;19.354;2022-07-09T12:39:16;3.83;;;2.00;;
40284;SDS011;25997;50.214;19.354;2022-07-09T12:42:18;4.22;;;2.40;;
40284;SDS011;25997;50.214;19.354;2022-07-09T12:45:20;4.55;;;2.70;;
40284;SDS011;25997;50.214;19.354;2022-07-09T12:48:23;3.50;;;2.25;;
40284;SDS011;25997;50.214;19.354;2022-07-09T12:51:27;3.85;;;2.13;;
40284;SDS011;25997;50.214;19.354;2022-07-09T12:54:29;4.00;;;2.33;;
40284;SDS011;25997;50.214;19.354;2022-07-09T12:57:32;3.22;;;1.95;;
40284;SDS011;25997;50.214;19.354;2022-07-09T13:00:34;2.28;;;1.80;;
40284;SDS011;25997;50.214;19.354;2022-07-09T13:03:37;5.45;;;2.03;;
40284;SDS011;25997;50.214;19.354;2022-07-09T13:06:41;3.70;;;2.10;;
40284;SDS011;25997;50.214;19.354;2022-07-09T13:09:43;5.43;;;2.80;;
40284;SDS011;25997;50.214;19.354;2022-07-09T13:12:46;3.92;;;2.20;;
40284;SDS011;25997;50.214;19.354;2022-07-09T13:15:48;4.18;;;2.20;;
40284;SDS011;25997;50.214;19.354;2022-07-09T13:18:52;3.95;;;2.45;;
40284;SDS011;25997;50.214;19.354;2022-07-09T13:21:56;2.53;;;1.80;;
40284;SDS011;25997;50.214;19.354;2022-07-09T13:24:58;4.43;;;2.22;;
40284;SDS011;25997;50.214;19.354;2022-07-09T13:28:01;2.17;;;1.58;;
40284;SDS011;25997;50.214;19.354;2022-07-09T13:31:03;3.53;;;2.47;;
40284;SDS011;25997;50.214;19.354;2022-07-09T13:34:07;4.75;;;2.20;;
40284;SDS011;25997;50.214;19.354;2022-07-09T13:37:11;3.78;;;2.00;;
40284;SDS011;25997;50.214;19.354;2022-07-09T13:40:13;2.90;;;1.75;;
40284;SDS011;25997;50.214;19.354;2022-07-09T13:43:16;4.00;;;2.30;;
40284;SDS011;25997;50.214;19.354;2022-07-09T13:46:18;3.90;;;1.80;;
40284;SDS011;25997;50.214;19.354;2022-07-09T13:49:20;5.63;;;2.05;;
40284;SDS011;25997;50.214;19.354;2022-07-09T13:52:24;5.20;;;2.05;;
40284;SDS011;25997;50.214;19.354;2022-07-09T13:55:27;3.20;;;2.40;;
40284;SDS011;25997;50.214;19.354;2022-07-09T13:58:30;4.13;;;2.00;;
40284;SDS011;25997;50.214;19.354;2022-07-09T14:01:32;2.88;;;2.10;;
40284;SDS011;25997;50.214;19.354;2022-07-09T14:04:34;3.47;;;2.28;;
40284;SDS011;25997;50.214;19.354;2022-07-09T14:07:38;3.08;;;2.00;;
40284;SDS011;25997;50.214;19.354;2022-07-09T14:10:41;2.70;;;1.95;;
40284;SDS011;25997;50.214;19.354;2022-07-09T14:13:43;3.75;;;2.50;;
40284;SDS011;25997;50.214;19.354;2022-07-09T14:16:49;8.20;;;3.20;;
40284;SDS011;25997;50.214;19.354;2022-07-09T14:19:51;3.63;;;2.85;;
40284;SDS011;25997;50.214;19.354;2022-07-09T14:22:55;3.17;;;2.50;;
40284;SDS011;25997;50.214;19.354;2022-07-09T14:25:58;3.50;;;2.97;;
40284;SDS011;25997;50.214;19.354;2022-07-09T14:29:00;2.67;;;2.17;;
40284;SDS011;25997;50.214;19.354;2022-07-09T14:32:03;2.83;;;2.47;;
40284;SDS011;25997;50.214;19.354;2022-07-09T14:35:08;3.60;;;2.35;;
40284;SDS011;25997;50.214;19.354;2022-07-09T14:38:12;4.00;;;2.92;;
40284;SDS011;25997;50.214;19.354;2022-07-09T14:41:15;3.30;;;1.88;;
40284;SDS011;25997;50.214;19.354;2022-07-09T14:44:18;2.70;;;2.03;;
40284;SDS011;25997;50.214;19.354;2022-07-09T14:47:21;5.18;;;2.10;;
40284;SDS011;25997;50.214;19.354;2022-07-09T14:50:23;2.70;;;1.80;;
40284;SDS011;25997;50.214;19.354;2022-07-09T14:53:27;13.30;;;8.23;;
40284;SDS011;25997;50.214;19.354;2022-07-09T14:56:29;6.43;;;2.42;;
40284;SDS011;25997;50.214;19.354;2022-07-09T14:59:32;4.60;;;3.25;;
40284;SDS011;25997;50.214;19.354;2022-07-09T15:02:34;2.88;;;2.38;;
40284;SDS011;25997;50.214;19.354;2022-07-09T15:05:37;2.22;;;1.67;;
40284;SDS011;25997;50.214;19.354;2022-07-09T15:08:41;2.45;;;1.45;;
40284;SDS011;25997;50.214;19.354;2022-07-09T15:11:43;3.00;;;1.60;;
40284;SDS011;25997;50.214;19.354;2022-07-09T15:14:46;2.65;;;1.67;;
40284;SDS011;25997;50.214;19.354;2022-07-09T15:17:48;2.40;;;1.70;;
40284;SDS011;25997;50.214;19.354;2022-07-09T15:20:52;2.78;;;1.90;;
40284;SDS011;25997;50.214;19.354;2022-07-09T15:23:55;3.95;;;1.48;;
40284;SDS011;25997;50.214;19.354;2022-07-09T15:26:58;5.82;;;1.90;;
40284;SDS011;25997;50.214;19.354;2022-07-09T15:30:00;4.13;;;1.90;;
40284;SDS011;25997;50.214;19.354;2022-07-09T15:33:03;5.07;;;2.80;;
40284;SDS011;25997;50.214;19.354;2022-07-09T15:36:06;2.90;;;1.70;;
40284;SDS011;25997;50.214;19.354;2022-07-09T15:39:10;3.58;;;1.63;;
40284;SDS011;25997;50.214;19.354;2022-07-09T15:42:13;3.03;;;1.73;;
40284;SDS011;25997;50.214;19.354;2022-07-09T15:45:15;2.03;;;1.33;;
40284;SDS011;25997;50.214;19.354;2022-07-09T15:48:20;2.95;;;1.67;;
40284;SDS011;25997;50.214;19.354;2022-07-09T15:51:23;2.78;;;1.73;;
40284;SDS011;25997;50.214;19.354;2022-07-09T15:54:27;2.83;;;1.73;;
40284;SDS011;25997;50.214;19.354;2022-07-09T15:57:29;3.15;;;1.67;;
40284;SDS011;25997;50.214;19.354;2022-07-09T16:00:32;2.53;;;1.95;;
40284;SDS011;25997;50.214;19.354;2022-07-09T16:03:34;5.28;;;2.60;;
40284;SDS011;25997;50.214;19.354;2022-07-09T16:06:37;6.28;;;3.38;;
40284;SDS011;25997;50.214;19.354;2022-07-09T16:09:40;5.15;;;2.38;;
40284;SDS011;25997;50.214;19.354;2022-07-09T16:12:43;5.07;;;1.95;;
40284;SDS011;25997;50.214;19.354;2022-07-09T16:15:50;5.55;;;2.72;;
40284;SDS011;25997;50.214;19.354;2022-07-09T16:18:52;2.40;;;1.60;;
40284;SDS011;25997;50.214;19.354;2022-07-09T16:21:55;2.75;;;1.38;;
40284;SDS011;25997;50.214;19.354;2022-07-09T16:24:59;4.13;;;1.70;;
40284;SDS011;25997;50.214;19.354;2022-07-09T16:28:01;2.92;;;1.73;;
40284;SDS011;25997;50.214;19.354;2022-07-09T16:31:04;5.40;;;2.05;;
40284;SDS011;25997;50.214;19.354;2022-07-09T16:34:09;4.78;;;1.90;;
40284;SDS011;25997;50.214;19.354;2022-07-09T16:37:11;5.50;;;1.75;;
40284;SDS011;25997;50.214;19.354;2022-07-09T16:40:15;5.30;;;2.17;;
40284;SDS011;25997;50.214;19.354;2022-07-09T16:43:17;4.32;;;2.25;;
40284;SDS011;25997;50.214;19.354;2022-07-09T16:46:20;4.07;;;2.55;;
40284;SDS011;25997;50.214;19.354;2022-07-09T16:49:22;3.75;;;2.47;;
40284;SDS011;25997;50.214;19.354;2022-07-09T16:52:25;2.92;;;1.70;;
40284;SDS011;25997;50.214;19.354;2022-07-09T16:55:29;2.72;;;1.65;;
40284;SDS011;25997;50.214;19.354;2022-07-09T16:58:31;3.97;;;2.47;;
40284;SDS011;25997;50.214;19.354;2022-07-09T17:01:34;2.65;;;1.80;;
40284;SDS011;25997;50.214;19.354;2022-07-09T17:04:36;2.08;;;1.42;;
40284;SDS011;25997;50.214;19.354;2022-07-09T17:07:39;4.78;;;2.00;;
40284;SDS011;25997;50.214;19.354;2022-07-09T17:10:43;4.38;;;1.80;;
40284;SDS011;25997;50.214;19.354;2022-07-09T17:13:46;2.75;;;1.85;;
40284;SDS011;25997;50.214;19.354;2022-07-09T17:16:49;4.30;;;2.40;;
40284;SDS011;25997;50.214;19.354;2022-07-09T17:19:51;2.65;;;1.85;;
40284;SDS011;25997;50.214;19.354;2022-07-09T17:22:54;3.13;;;1.40;;
40284;SDS011;25997;50.214;19.354;2022-07-09T17:25:58;4.35;;;1.63;;
40284;SDS011;25997;50.214;19.354;2022-07-09T17:29:00;6.63;;;2.20;;
40284;SDS011;25997;50.214;19.354;2022-07-09T17:32:03;3.38;;;2.13;;
40284;SDS011;25997;50.214;19.354;2022-07-09T17:35:07;6.95;;;1.98;;
40284;SDS011;25997;50.214;19.354;2022-07-09T17:38:10;4.55;;;2.15;;
40284;SDS011;25997;50.214;19.354;2022-07-09T17:41:14;3.65;;;1.50;;
40284;SDS011;25997;50.214;19.354;2022-07-09T17:44:16;3.65;;;2.08;;
40284;SDS011;25997;50.214;19.354;2022-07-09T17:47:18;5.43;;;2.20;;
40284;SDS011;25997;50.214;19.354;2022-07-09T17:50:21;4.82;;;2.55;;
40284;SDS011;25997;50.214;19.354;2022-07-09T17:53:24;5.32;;;2.60;;
40284;SDS011;25997;50.214;19.354;2022-07-09T17:56:27;5.13;;;2.90;;
40284;SDS011;25997;50.214;19.354;2022-07-09T17:59:31;4.32;;;2.30;;
40284;SDS011;25997;50.214;19.354;2022-07-09T18:02:34;6.88;;;3.28;;
40284;SDS011;25997;50.214;19.354;2022-07-09T18:05:36;3.72;;;2.70;;
40284;SDS011;25997;50.214;19.354;2022-07-09T18:08:38;5.28;;;2.30;;